sensor_id;sensor_type;location;lat;lon;timestamp;P1;durP1;ratioP1;P2;durP2;ratioP2
3022;SDS011;1521;53.584;9.938;2023-03-14T00:00:14;7.33;;;3.10;;
3022;SDS011;1521;53.584;9.938;2023-03-14T00:02:40;5.50;;;3.10;;
3022;SDS011;1521;53.584;9.938;2023-03-14T00:05:06;6.27;;;3.40;;
3022;SDS011;1521;53.584;9.938;2023-03-14T00:07:36;8.97;;;4.20;;
3022;SDS011;1521;53.584;9.938;2023-03-14T00:10:10;8.27;;;3.57;;
3022;SDS011;1521;53.584;9.938;2023-03-14T00:12:38;6.70;;;3.70;;
3022;SDS011;1521;53.584;9.938;2023-03-14T00:15:04;6.00;;;4.07;;
3022;SDS011;1521;53.584;9.938;2023-03-14T00:17:33;8.53;;;3.77;;
3022;SDS011;1521;53.584;9.938;2023-03-14T00:19:59;6.17;;;3.80;;
3022;SDS011;1521;53.584;9.938;2023-03-14T00:22:29;7.03;;;4.00;;
3022;SDS011;1521;53.584;9.938;2023-03-14T00:24:56;6.63;;;3.90;;
3022;SDS011;1521;53.584;9.938;2023-03-14T00:27:21;9.27;;;3.40;;
3022;SDS011;1521;53.584;9.938;2023-03-14T00:29:47;9.40;;;3.77;;
3022;SDS011;1521;53.584;9.938;2023-03-14T00:32:12;4.63;;;3.27;;
3022;SDS011;1521;53.584;9.938;2023-03-14T00:34:38;10.10;;;3.30;;
3022;SDS011;1521;53.584;9.938;2023-03-14T00:37:04;11.37;;;4.20;;
3022;SDS011;1521;53.584;9.938;2023-03-14T00:39:30;10.80;;;3.57;;
3022;SDS011;1521;53.584;9.938;2023-03-14T00:41:56;9.73;;;3.50;;
3022;SDS011;1521;53.584;9.938;2023-03-14T00:44:21;13.00;;;3.60;;
3022;SDS011;1521;53.584;9.938;2023-03-14T00:46:47;9.00;;;3.80;;
3022;SDS011;1521;53.584;9.938;2023-03-14T00:49:12;11.20;;;4.07;;
3022;SDS011;1521;53.584;9.938;2023-03-14T00:51:38;9.33;;;3.60;;
3022;SDS011;1521;53.584;9.938;2023-03-14T00:54:04;10.37;;;3.40;;
3022;SDS011;1521;53.584;9.938;2023-03-14T00:56:30;7.57;;;3.60;;
3022;SDS011;1521;53.584;9.938;2023-03-14T00:58:55;12.47;;;3.80;;
3022;SDS011;1521;53.584;9.938;2023-03-14T01:01:22;13.50;;;3.37;;
3022;SDS011;1521;53.584;9.938;2023-03-14T01:03:50;9.93;;;3.37;;
3022;SDS011;1521;53.584;9.938;2023-03-14T01:06:18;9.13;;;3.57;;
3022;SDS011;1521;53.584;9.938;2023-03-14T01:08:46;10.70;;;3.30;;
3022;SDS011;1521;53.584;9.938;2023-03-14T01:11:13;11.00;;;3.40;;
3022;SDS011;1521;53.584;9.938;2023-03-14T01:13:41;13.17;;;4.00;;
3022;SDS011;1521;53.584;9.938;2023-03-14T01:16:08;8.50;;;3.30;;
3022;SDS011;1521;53.584;9.938;2023-03-14T01:18:36;10.23;;;3.10;;
3022;SDS011;1521;53.584;9.938;2023-03-14T01:21:03;11.20;;;3.77;;
3022;SDS011;1521;53.584;9.938;2023-03-14T01:23:34;10.70;;;3.70;;
3022;SDS011;1521;53.584;9.938;2023-03-14T01:25:59;9.07;;;3.10;;
3022;SDS011;1521;53.584;9.938;2023-03-14T01:28:25;8.00;;;3.50;;
3022;SDS011;1521;53.584;9.938;2023-03-14T01:30:51;9.07;;;3.40;;
3022;SDS011;1521;53.584;9.938;2023-03-14T01:33:16;6.47;;;3.17;;
3022;SDS011;1521;53.584;9.938;2023-03-14T01:35:42;11.73;;;3.83;;
3022;SDS011;1521;53.584;9.938;2023-03-14T01:38:08;7.03;;;3.30;;
3022;SDS011;1521;53.584;9.938;2023-03-14T01:40:33;13.33;;;3.40;;
3022;SDS011;1521;53.584;9.938;2023-03-14T01:43:05;8.50;;;3.30;;
3022;SDS011;1521;53.584;9.938;2023-03-14T01:48:21;8.57;;;3.67;;
3022;SDS011;1521;53.584;9.938;2023-03-14T01:50:47;11.87;;;3.50;;
3022;SDS011;1521;53.584;9.938;2023-03-14T01:53:13;12.93;;;3.70;;
3022;SDS011;1521;53.584;9.938;2023-03-14T01:55:39;8.63;;;3.57;;
3022;SDS011;1521;53.584;9.938;2023-03-14T01:58:05;13.00;;;3.67;;
3022;SDS011;1521;53.584;9.938;2023-03-14T02:00:31;4.03;;;2.87;;
3022;SDS011;1521;53.584;9.938;2023-03-14T02:03:01;10.77;;;3.40;;
3022;SDS011;1521;53.584;9.938;2023-03-14T02:05:32;8.73;;;3.20;;
3022;SDS011;1521;53.584;9.938;2023-03-14T02:08:00;7.03;;;3.60;;
3022;SDS011;1521;53.584;9.938;2023-03-14T02:10:27;11.20;;;3.70;;
3022;SDS011;1521;53.584;9.938;2023-03-14T02:13:01;12.47;;;4.03;;
3022;SDS011;1521;53.584;9.938;2023-03-14T02:15:29;7.93;;;3.77;;
3022;SDS011;1521;53.584;9.938;2023-03-14T02:17:55;11.60;;;4.20;;
3022;SDS011;1521;53.584;9.938;2023-03-14T02:23:23;10.73;;;3.87;;
3022;SDS011;1521;53.584;9.938;2023-03-14T02:26:10;11.60;;;4.10;;
3022;SDS011;1521;53.584;9.938;2023-03-14T02:28:40;10.90;;;4.03;;
3022;SDS011;1521;53.584;9.938;2023-03-14T02:31:06;12.73;;;4.03;;
3022;SDS011;1521;53.584;9.938;2023-03-14T02:33:33;13.47;;;4.40;;
3022;SDS011;1521;53.584;9.938;2023-03-14T02:36:03;14.03;;;4.20;;
3022;SDS011;1521;53.584;9.938;2023-03-14T02:41:20;9.00;;;4.00;;
3022;SDS011;1521;53.584;9.938;2023-03-14T02:43:46;6.77;;;4.00;;
3022;SDS011;1521;53.584;9.938;2023-03-14T02:46:12;9.80;;;4.83;;
3022;SDS011;1521;53.584;9.938;2023-03-14T02:48:48;7.17;;;3.83;;
3022;SDS011;1521;53.584;9.938;2023-03-14T02:51:17;9.37;;;4.17;;
3022;SDS011;1521;53.584;9.938;2023-03-14T02:53:43;10.03;;;4.30;;
3022;SDS011;1521;53.584;9.938;2023-03-14T02:56:09;7.53;;;4.23;;
3022;SDS011;1521;53.584;9.938;2023-03-14T02:58:35;12.90;;;4.90;;
3022;SDS011;1521;53.584;9.938;2023-03-14T03:01:01;7.80;;;4.20;;
3022;SDS011;1521;53.584;9.938;2023-03-14T03:03:27;9.20;;;3.90;;
3022;SDS011;1521;53.584;9.938;2023-03-14T03:05:53;6.10;;;4.13;;
3022;SDS011;1521;53.584;9.938;2023-03-14T03:08:21;10.93;;;4.80;;
3022;SDS011;1521;53.584;9.938;2023-03-14T03:10:48;11.10;;;3.73;;
3022;SDS011;1521;53.584;9.938;2023-03-14T03:13:14;11.60;;;3.97;;
3022;SDS011;1521;53.584;9.938;2023-03-14T03:15:40;10.40;;;4.70;;
3022;SDS011;1521;53.584;9.938;2023-03-14T03:18:06;10.00;;;4.83;;
3022;SDS011;1521;53.584;9.938;2023-03-14T03:20:32;10.80;;;4.90;;
3022;SDS011;1521;53.584;9.938;2023-03-14T03:22:58;6.60;;;4.10;;
3022;SDS011;1521;53.584;9.938;2023-03-14T03:25:24;10.40;;;4.13;;
3022;SDS011;1521;53.584;9.938;2023-03-14T03:27:50;11.57;;;4.13;;
3022;SDS011;1521;53.584;9.938;2023-03-14T03:30:15;7.43;;;4.10;;
3022;SDS011;1521;53.584;9.938;2023-03-14T03:32:41;13.20;;;4.30;;
3022;SDS011;1521;53.584;9.938;2023-03-14T03:35:07;7.77;;;4.20;;
3022;SDS011;1521;53.584;9.938;2023-03-14T03:37:33;8.30;;;4.00;;
3022;SDS011;1521;53.584;9.938;2023-03-14T03:40:00;7.93;;;4.13;;
3022;SDS011;1521;53.584;9.938;2023-03-14T03:42:26;7.10;;;3.97;;
3022;SDS011;1521;53.584;9.938;2023-03-14T03:44:52;8.20;;;4.13;;
3022;SDS011;1521;53.584;9.938;2023-03-14T03:47:18;7.63;;;4.10;;
3022;SDS011;1521;53.584;9.938;2023-03-14T03:49:44;7.40;;;3.80;;
3022;SDS011;1521;53.584;9.938;2023-03-14T03:52:09;14.43;;;4.17;;
3022;SDS011;1521;53.584;9.938;2023-03-14T03:54:35;6.67;;;3.33;;
3022;SDS011;1521;53.584;9.938;2023-03-14T03:57:01;7.57;;;3.57;;
3022;SDS011;1521;53.584;9.938;2023-03-14T03:59:26;7.93;;;4.50;;
3022;SDS011;1521;53.584;9.938;2023-03-14T04:01:52;9.87;;;4.00;;
3022;SDS011;1521;53.584;9.938;2023-03-14T04:04:18;9.53;;;3.70;;
3022;SDS011;1521;53.584;9.938;2023-03-14T04:06:43;9.43;;;3.70;;
3022;SDS011;1521;53.584;9.938;2023-03-14T04:09:09;6.80;;;3.63;;
3022;SDS011;1521;53.584;9.938;2023-03-14T04:11:36;11.77;;;4.20;;
3022;SDS011;1521;53.584;9.938;2023-03-14T04:14:02;8.30;;;4.10;;
3022;SDS011;1521;53.584;9.938;2023-03-14T04:16:27;9.27;;;3.70;;
3022;SDS011;1521;53.584;9.938;2023-03-14T04:18:54;6.73;;;3.53;;
3022;SDS011;1521;53.584;9.938;2023-03-14T04:21:19;8.20;;;3.83;;
3022;SDS011;1521;53.584;9.938;2023-03-14T04:23:45;11.50;;;4.20;;
3022;SDS011;1521;53.584;9.938;2023-03-14T04:26:10;13.00;;;4.43;;
3022;SDS011;1521;53.584;9.938;2023-03-14T04:28:36;9.07;;;4.43;;
3022;SDS011;1521;53.584;9.938;2023-03-14T04:31:12;13.83;;;4.40;;
3022;SDS011;1521;53.584;9.938;2023-03-14T04:33:38;11.77;;;4.47;;
3022;SDS011;1521;53.584;9.938;2023-03-14T04:36:05;11.03;;;4.43;;
3022;SDS011;1521;53.584;9.938;2023-03-14T04:38:31;10.10;;;3.90;;
3022;SDS011;1521;53.584;9.938;2023-03-14T04:40:57;8.63;;;4.60;;
3022;SDS011;1521;53.584;9.938;2023-03-14T04:43:24;10.67;;;4.50;;
3022;SDS011;1521;53.584;9.938;2023-03-14T04:45:50;16.23;;;5.07;;
3022;SDS011;1521;53.584;9.938;2023-03-14T04:48:20;12.13;;;4.10;;
3022;SDS011;1521;53.584;9.938;2023-03-14T04:50:46;9.87;;;5.00;;
3022;SDS011;1521;53.584;9.938;2023-03-14T04:53:13;9.53;;;4.67;;
3022;SDS011;1521;53.584;9.938;2023-03-14T04:55:39;10.43;;;4.47;;
3022;SDS011;1521;53.584;9.938;2023-03-14T04:58:04;5.90;;;4.03;;
3022;SDS011;1521;53.584;9.938;2023-03-14T05:00:30;13.63;;;4.97;;
3022;SDS011;1521;53.584;9.938;2023-03-14T05:02:55;8.00;;;3.00;;
3022;SDS011;1521;53.584;9.938;2023-03-14T05:05:21;4.23;;;2.90;;
3022;SDS011;1521;53.584;9.938;2023-03-14T05:07:47;4.63;;;2.60;;
3022;SDS011;1521;53.584;9.938;2023-03-14T05:10:12;9.00;;;2.77;;
3022;SDS011;1521;53.584;9.938;2023-03-14T05:12:38;2.73;;;2.50;;
3022;SDS011;1521;53.584;9.938;2023-03-14T05:15:04;6.77;;;2.57;;
3022;SDS011;1521;53.584;9.938;2023-03-14T05:17:32;5.50;;;2.83;;
3022;SDS011;1521;53.584;9.938;2023-03-14T05:19:57;8.27;;;2.97;;
3022;SDS011;1521;53.584;9.938;2023-03-14T05:22:23;5.53;;;3.07;;
3022;SDS011;1521;53.584;9.938;2023-03-14T05:24:48;4.03;;;2.47;;
3022;SDS011;1521;53.584;9.938;2023-03-14T05:27:14;7.50;;;3.03;;
3022;SDS011;1521;53.584;9.938;2023-03-14T05:29:40;9.00;;;3.30;;
3022;SDS011;1521;53.584;9.938;2023-03-14T05:32:05;7.37;;;3.50;;
3022;SDS011;1521;53.584;9.938;2023-03-14T05:34:31;8.07;;;3.50;;
3022;SDS011;1521;53.584;9.938;2023-03-14T05:36:56;7.63;;;3.30;;
3022;SDS011;1521;53.584;9.938;2023-03-14T05:39:23;4.67;;;3.10;;
3022;SDS011;1521;53.584;9.938;2023-03-14T05:41:49;10.30;;;4.00;;
3022;SDS011;1521;53.584;9.938;2023-03-14T05:44:15;7.63;;;3.83;;
3022;SDS011;1521;53.584;9.938;2023-03-14T05:46:40;7.00;;;4.30;;
3022;SDS011;1521;53.584;9.938;2023-03-14T05:49:06;10.13;;;4.50;;
3022;SDS011;1521;53.584;9.938;2023-03-14T05:51:32;13.00;;;4.63;;
3022;SDS011;1521;53.584;9.938;2023-03-14T05:53:57;10.53;;;4.13;;
3022;SDS011;1521;53.584;9.938;2023-03-14T05:56:23;8.07;;;4.87;;
3022;SDS011;1521;53.584;9.938;2023-03-14T05:58:48;9.67;;;5.07;;
3022;SDS011;1521;53.584;9.938;2023-03-14T06:01:14;7.80;;;5.47;;
3022;SDS011;1521;53.584;9.938;2023-03-14T06:03:40;9.03;;;5.67;;
3022;SDS011;1521;53.584;9.938;2023-03-14T06:06:05;12.47;;;5.80;;
3022;SDS011;1521;53.584;9.938;2023-03-14T06:08:31;13.20;;;6.50;;
3022;SDS011;1521;53.584;9.938;2023-03-14T06:10:57;20.27;;;8.07;;
3022;SDS011;1521;53.584;9.938;2023-03-14T06:13:23;14.37;;;6.60;;
3022;SDS011;1521;53.584;9.938;2023-03-14T06:15:48;12.00;;;7.37;;
3022;SDS011;1521;53.584;9.938;2023-03-14T06:18:14;15.40;;;7.50;;
3022;SDS011;1521;53.584;9.938;2023-03-14T06:20:40;17.83;;;8.00;;
3022;SDS011;1521;53.584;9.938;2023-03-14T06:23:06;18.23;;;8.00;;
3022;SDS011;1521;53.584;9.938;2023-03-14T06:25:33;15.57;;;7.30;;
3022;SDS011;1521;53.584;9.938;2023-03-14T06:27:59;10.50;;;7.17;;
3022;SDS011;1521;53.584;9.938;2023-03-14T06:30:25;15.30;;;7.17;;
3022;SDS011;1521;53.584;9.938;2023-03-14T06:32:51;15.03;;;7.40;;
3022;SDS011;1521;53.584;9.938;2023-03-14T06:35:17;14.50;;;7.80;;
3022;SDS011;1521;53.584;9.938;2023-03-14T06:37:42;13.00;;;7.30;;
3022;SDS011;1521;53.584;9.938;2023-03-14T06:40:09;16.93;;;7.30;;
3022;SDS011;1521;53.584;9.938;2023-03-14T06:42:35;19.37;;;7.30;;
3022;SDS011;1521;53.584;9.938;2023-03-14T06:45:01;9.73;;;7.40;;
3022;SDS011;1521;53.584;9.938;2023-03-14T06:47:27;13.43;;;6.90;;
3022;SDS011;1521;53.584;9.938;2023-03-14T06:49:53;11.43;;;6.60;;
3022;SDS011;1521;53.584;9.938;2023-03-14T06:52:19;9.90;;;6.30;;
3022;SDS011;1521;53.584;9.938;2023-03-14T06:54:44;15.73;;;7.30;;
3022;SDS011;1521;53.584;9.938;2023-03-14T06:57:10;14.73;;;6.63;;
3022;SDS011;1521;53.584;9.938;2023-03-14T06:59:35;11.20;;;5.87;;
3022;SDS011;1521;53.584;9.938;2023-03-14T07:02:01;13.27;;;5.73;;
3022;SDS011;1521;53.584;9.938;2023-03-14T07:04:26;8.43;;;4.73;;
3022;SDS011;1521;53.584;9.938;2023-03-14T07:06:52;11.70;;;5.37;;
3022;SDS011;1521;53.584;9.938;2023-03-14T07:09:18;9.27;;;4.90;;
3022;SDS011;1521;53.584;9.938;2023-03-14T07:11:43;12.60;;;4.73;;
3022;SDS011;1521;53.584;9.938;2023-03-14T07:14:09;10.43;;;4.10;;
3022;SDS011;1521;53.584;9.938;2023-03-14T07:16:34;9.10;;;4.10;;
3022;SDS011;1521;53.584;9.938;2023-03-14T07:19:00;7.90;;;3.67;;
3022;SDS011;1521;53.584;9.938;2023-03-14T07:21:27;9.57;;;3.30;;
3022;SDS011;1521;53.584;9.938;2023-03-14T07:23:53;7.70;;;3.03;;
3022;SDS011;1521;53.584;9.938;2023-03-14T07:26:19;6.23;;;2.90;;
3022;SDS011;1521;53.584;9.938;2023-03-14T07:28:45;7.50;;;2.63;;
3022;SDS011;1521;53.584;9.938;2023-03-14T07:31:10;6.17;;;2.97;;
3022;SDS011;1521;53.584;9.938;2023-03-14T07:33:36;8.53;;;3.07;;
3022;SDS011;1521;53.584;9.938;2023-03-14T07:36:02;4.70;;;2.33;;
3022;SDS011;1521;53.584;9.938;2023-03-14T07:38:28;6.90;;;2.63;;
3022;SDS011;1521;53.584;9.938;2023-03-14T07:41:00;10.03;;;3.33;;
3022;SDS011;1521;53.584;9.938;2023-03-14T07:43:27;8.30;;;3.57;;
3022;SDS011;1521;53.584;9.938;2023-03-14T07:45:53;9.17;;;3.80;;
3022;SDS011;1521;53.584;9.938;2023-03-14T07:48:18;10.70;;;3.87;;
3022;SDS011;1521;53.584;9.938;2023-03-14T07:50:48;8.53;;;3.43;;
3022;SDS011;1521;53.584;9.938;2023-03-14T07:53:14;11.47;;;4.00;;
3022;SDS011;1521;53.584;9.938;2023-03-14T07:55:40;9.53;;;3.67;;
3022;SDS011;1521;53.584;9.938;2023-03-14T07:58:05;7.67;;;3.27;;
3022;SDS011;1521;53.584;9.938;2023-03-14T08:00:31;7.43;;;2.90;;
3022;SDS011;1521;53.584;9.938;2023-03-14T08:02:57;9.70;;;2.60;;
3022;SDS011;1521;53.584;9.938;2023-03-14T08:05:23;4.70;;;2.20;;
3022;SDS011;1521;53.584;9.938;2023-03-14T08:07:49;6.07;;;2.40;;
3022;SDS011;1521;53.584;9.938;2023-03-14T08:10:14;6.43;;;2.37;;
3022;SDS011;1521;53.584;9.938;2023-03-14T08:12:50;4.57;;;1.83;;
3022;SDS011;1521;53.584;9.938;2023-03-14T08:15:20;5.73;;;2.10;;
3022;SDS011;1521;53.584;9.938;2023-03-14T08:17:46;3.10;;;1.90;;
3022;SDS011;1521;53.584;9.938;2023-03-14T08:20:16;3.57;;;2.00;;
3022;SDS011;1521;53.584;9.938;2023-03-14T08:22:45;7.00;;;2.53;;
3022;SDS011;1521;53.584;9.938;2023-03-14T08:25:11;6.80;;;2.58;;
3022;SDS011;1521;53.584;9.938;2023-03-14T08:27:37;5.60;;;2.30;;
3022;SDS011;1521;53.584;9.938;2023-03-14T08:30:04;6.70;;;2.20;;
3022;SDS011;1521;53.584;9.938;2023-03-14T08:32:31;6.70;;;3.00;;
3022;SDS011;1521;53.584;9.938;2023-03-14T08:34:56;6.97;;;2.63;;
3022;SDS011;1521;53.584;9.938;2023-03-14T08:37:22;3.83;;;2.43;;
3022;SDS011;1521;53.584;9.938;2023-03-14T08:39:49;4.93;;;2.20;;
3022;SDS011;1521;53.584;9.938;2023-03-14T08:42:15;6.50;;;2.70;;
3022;SDS011;1521;53.584;9.938;2023-03-14T08:44:41;13.47;;;3.10;;
3022;SDS011;1521;53.584;9.938;2023-03-14T08:47:07;8.57;;;2.83;;
3022;SDS011;1521;53.584;9.938;2023-03-14T08:49:32;16.73;;;3.40;;
3022;SDS011;1521;53.584;9.938;2023-03-14T08:51:58;8.67;;;3.30;;
3022;SDS011;1521;53.584;9.938;2023-03-14T08:54:24;6.37;;;3.20;;
3022;SDS011;1521;53.584;9.938;2023-03-14T08:56:49;8.13;;;3.60;;
3022;SDS011;1521;53.584;9.938;2023-03-14T08:59:15;9.10;;;3.77;;
3022;SDS011;1521;53.584;9.938;2023-03-14T09:01:40;8.00;;;3.80;;
3022;SDS011;1521;53.584;9.938;2023-03-14T09:04:06;10.50;;;4.40;;
3022;SDS011;1521;53.584;9.938;2023-03-14T09:06:31;8.63;;;3.93;;
3022;SDS011;1521;53.584;9.938;2023-03-14T09:08:57;5.97;;;4.10;;
3022;SDS011;1521;53.584;9.938;2023-03-14T09:11:23;12.03;;;4.70;;
3022;SDS011;1521;53.584;9.938;2023-03-14T09:13:48;13.00;;;4.40;;
3022;SDS011;1521;53.584;9.938;2023-03-14T09:16:14;8.83;;;4.40;;
3022;SDS011;1521;53.584;9.938;2023-03-14T09:18:40;8.30;;;4.63;;
3022;SDS011;1521;53.584;9.938;2023-03-14T09:21:06;7.70;;;4.63;;
3022;SDS011;1521;53.584;9.938;2023-03-14T09:23:31;12.47;;;4.80;;
3022;SDS011;1521;53.584;9.938;2023-03-14T09:25:58;11.67;;;5.20;;
3022;SDS011;1521;53.584;9.938;2023-03-14T09:28:25;10.47;;;5.30;;
3022;SDS011;1521;53.584;9.938;2023-03-14T09:30:51;10.47;;;4.43;;
3022;SDS011;1521;53.584;9.938;2023-03-14T09:33:17;11.88;;;4.70;;
3022;SDS011;1521;53.584;9.938;2023-03-14T09:35:43;12.10;;;4.53;;
3022;SDS011;1521;53.584;9.938;2023-03-14T09:38:08;9.67;;;5.17;;
3022;SDS011;1521;53.584;9.938;2023-03-14T09:40:35;7.97;;;4.67;;
3022;SDS011;1521;53.584;9.938;2023-03-14T09:43:02;7.50;;;4.33;;
3022;SDS011;1521;53.584;9.938;2023-03-14T09:45:31;11.03;;;4.10;;
3022;SDS011;1521;53.584;9.938;2023-03-14T09:48:04;11.02;;;5.10;;
3022;SDS011;1521;53.584;9.938;2023-03-14T09:50:37;10.47;;;4.17;;
3022;SDS011;1521;53.584;9.938;2023-03-14T09:53:08;3.17;;;1.60;;
3022;SDS011;1521;53.584;9.938;2023-03-14T09:55:41;2.60;;;1.30;;
3022;SDS011;1521;53.584;9.938;2023-03-14T09:58:16;5.13;;;1.60;;
3022;SDS011;1521;53.584;9.938;2023-03-14T10:00:43;5.63;;;1.80;;
3022;SDS011;1521;53.584;9.938;2023-03-14T10:05:38;3.73;;;1.70;;
3022;SDS011;1521;53.584;9.938;2023-03-14T10:08:05;4.03;;;2.33;;
3022;SDS011;1521;53.584;9.938;2023-03-14T10:10:31;1.60;;;1.50;;
3022;SDS011;1521;53.584;9.938;2023-03-14T10:13:42;2.23;;;1.57;;
3022;SDS011;1521;53.584;9.938;2023-03-14T10:15:59;2.93;;;1.70;;
3022;SDS011;1521;53.584;9.938;2023-03-14T10:18:25;6.47;;;2.40;;
3022;SDS011;1521;53.584;9.938;2023-03-14T10:23:43;2.40;;;1.50;;
3022;SDS011;1521;53.584;9.938;2023-03-14T10:26:13;1.23;;;0.90;;
3022;SDS011;1521;53.584;9.938;2023-03-14T10:28:47;1.67;;;1.27;;
3022;SDS011;1521;53.584;9.938;2023-03-14T10:31:16;4.13;;;1.13;;
3022;SDS011;1521;53.584;9.938;2023-03-14T10:33:43;2.00;;;0.90;;
3022;SDS011;1521;53.584;9.938;2023-03-14T10:36:29;1.63;;;0.80;;
3022;SDS011;1521;53.584;9.938;2023-03-14T10:38:58;1.67;;;1.03;;
3022;SDS011;1521;53.584;9.938;2023-03-14T10:41:52;2.43;;;0.90;;
3022;SDS011;1521;53.584;9.938;2023-03-14T10:44:23;1.40;;;1.13;;
3022;SDS011;1521;53.584;9.938;2023-03-14T10:46:58;1.43;;;0.80;;
3022;SDS011;1521;53.584;9.938;2023-03-14T10:49:27;1.10;;;0.90;;
3022;SDS011;1521;53.584;9.938;2023-03-14T10:51:55;2.33;;;0.80;;
3022;SDS011;1521;53.584;9.938;2023-03-14T10:54:21;1.83;;;0.87;;
3022;SDS011;1521;53.584;9.938;2023-03-14T10:56:58;3.23;;;0.80;;
3022;SDS011;1521;53.584;9.938;2023-03-14T10:59:25;0.97;;;0.87;;
3022;SDS011;1521;53.584;9.938;2023-03-14T11:02:03;1.40;;;0.70;;
3022;SDS011;1521;53.584;9.938;2023-03-14T11:07:46;5.03;;;0.90;;
3022;SDS011;1521;53.584;9.938;2023-03-14T11:25:44;7.43;;;1.40;;
3022;SDS011;1521;53.584;9.938;2023-03-14T11:28:23;5.13;;;1.37;;
3022;SDS011;1521;53.584;9.938;2023-03-14T11:33:56;2.37;;;1.10;;
3022;SDS011;1521;53.584;9.938;2023-03-14T11:36:38;2.80;;;1.00;;
3022;SDS011;1521;53.584;9.938;2023-03-14T11:39:12;2.30;;;1.00;;
3022;SDS011;1521;53.584;9.938;2023-03-14T11:41:41;2.70;;;1.17;;
3022;SDS011;1521;53.584;9.938;2023-03-14T11:44:24;3.23;;;1.20;;
3022;SDS011;1521;53.584;9.938;2023-03-14T11:46:56;7.37;;;1.50;;
3022;SDS011;1521;53.584;9.938;2023-03-14T11:52:15;6.83;;;2.33;;
3022;SDS011;1521;53.584;9.938;2023-03-14T11:54:50;11.10;;;1.43;;
3022;SDS011;1521;53.584;9.938;2023-03-14T11:57:20;5.67;;;1.40;;
3022;SDS011;1521;53.584;9.938;2023-03-14T12:08:32;7.67;;;1.33;;
3022;SDS011;1521;53.584;9.938;2023-03-14T12:11:03;7.07;;;1.37;;
3022;SDS011;1521;53.584;9.938;2023-03-14T12:13:32;8.03;;;1.50;;
3022;SDS011;1521;53.584;9.938;2023-03-14T12:16:03;3.87;;;1.13;;
3022;SDS011;1521;53.584;9.938;2023-03-14T12:18:31;4.30;;;1.30;;
3022;SDS011;1521;53.584;9.938;2023-03-14T12:21:04;13.03;;;1.90;;
3022;SDS011;1521;53.584;9.938;2023-03-14T12:24:14;9.23;;;1.67;;
3022;SDS011;1521;53.584;9.938;2023-03-14T12:26:26;5.70;;;1.67;;
3022;SDS011;1521;53.584;9.938;2023-03-14T12:29:17;15.17;;;2.10;;
3022;SDS011;1521;53.584;9.938;2023-03-14T12:42:36;7.07;;;1.80;;
3022;SDS011;1521;53.584;9.938;2023-03-14T12:50:08;10.13;;;2.13;;
3022;SDS011;1521;53.584;9.938;2023-03-14T12:58:38;12.30;;;2.30;;
3022;SDS011;1521;53.584;9.938;2023-03-14T13:01:23;11.03;;;2.40;;
3022;SDS011;1521;53.584;9.938;2023-03-14T13:03:52;13.10;;;2.10;;
3022;SDS011;1521;53.584;9.938;2023-03-14T13:12:34;14.80;;;2.67;;
3022;SDS011;1521;53.584;9.938;2023-03-14T13:14:52;15.03;;;2.90;;
3022;SDS011;1521;53.584;9.938;2023-03-14T13:17:26;7.97;;;1.90;;
3022;SDS011;1521;53.584;9.938;2023-03-14T13:19:57;11.00;;;2.30;;
3022;SDS011;1521;53.584;9.938;2023-03-14T13:22:28;16.33;;;2.50;;
3022;SDS011;1521;53.584;9.938;2023-03-14T13:24:59;8.17;;;1.70;;
3022;SDS011;1521;53.584;9.938;2023-03-14T13:27:30;9.93;;;2.30;;
3022;SDS011;1521;53.584;9.938;2023-03-14T13:29:57;9.53;;;1.80;;
3022;SDS011;1521;53.584;9.938;2023-03-14T13:32:25;11.17;;;1.93;;
3022;SDS011;1521;53.584;9.938;2023-03-14T13:34:56;9.30;;;2.00;;
3022;SDS011;1521;53.584;9.938;2023-03-14T13:37:24;7.50;;;1.73;;
3022;SDS011;1521;53.584;9.938;2023-03-14T13:39:51;13.20;;;1.80;;
3022;SDS011;1521;53.584;9.938;2023-03-14T13:42:20;12.63;;;1.80;;
3022;SDS011;1521;53.584;9.938;2023-03-14T13:44:46;13.03;;;1.60;;
3022;SDS011;1521;53.584;9.938;2023-03-14T13:47:16;11.47;;;1.50;;
3022;SDS011;1521;53.584;9.938;2023-03-14T13:49:43;10.07;;;1.50;;
3022;SDS011;1521;53.584;9.938;2023-03-14T13:55:00;8.10;;;1.90;;
3022;SDS011;1521;53.584;9.938;2023-03-14T13:57:30;11.37;;;2.00;;
3022;SDS011;1521;53.584;9.938;2023-03-14T14:00:20;7.23;;;1.83;;
3022;SDS011;1521;53.584;9.938;2023-03-14T14:02:46;16.97;;;2.77;;
3022;SDS011;1521;53.584;9.938;2023-03-14T14:05:12;7.93;;;2.20;;
3022;SDS011;1521;53.584;9.938;2023-03-14T14:07:39;9.80;;;1.93;;
3022;SDS011;1521;53.584;9.938;2023-03-14T14:10:09;8.87;;;1.80;;
3022;SDS011;1521;53.584;9.938;2023-03-14T14:12:39;7.70;;;2.17;;
3022;SDS011;1521;53.584;9.938;2023-03-14T14:15:11;6.53;;;1.67;;
3022;SDS011;1521;53.584;9.938;2023-03-14T14:17:54;13.33;;;2.20;;
3022;SDS011;1521;53.584;9.938;2023-03-14T14:22:56;16.17;;;1.80;;
3022;SDS011;1521;53.584;9.938;2023-03-14T14:25:22;11.20;;;1.80;;
3022;SDS011;1521;53.584;9.938;2023-03-14T14:27:48;7.57;;;1.70;;
3022;SDS011;1521;53.584;9.938;2023-03-14T14:32:44;11.60;;;1.90;;
3022;SDS011;1521;53.584;9.938;2023-03-14T14:35:21;8.60;;;2.17;;
3022;SDS011;1521;53.584;9.938;2023-03-14T14:37:49;14.47;;;2.50;;
3022;SDS011;1521;53.584;9.938;2023-03-14T14:40:19;14.73;;;2.10;;
3022;SDS011;1521;53.584;9.938;2023-03-14T14:42:47;5.17;;;1.40;;
3022;SDS011;1521;53.584;9.938;2023-03-14T14:45:16;10.90;;;1.77;;
3022;SDS011;1521;53.584;9.938;2023-03-14T14:48:03;5.60;;;1.60;;
3022;SDS011;1521;53.584;9.938;2023-03-14T14:50:33;12.50;;;1.73;;
3022;SDS011;1521;53.584;9.938;2023-03-14T14:53:22;9.07;;;1.50;;
3022;SDS011;1521;53.584;9.938;2023-03-14T14:55:54;8.47;;;1.67;;
3022;SDS011;1521;53.584;9.938;2023-03-14T15:00:56;10.33;;;1.73;;
3022;SDS011;1521;53.584;9.938;2023-03-14T15:03:37;7.50;;;1.47;;
3022;SDS011;1521;53.584;9.938;2023-03-14T15:06:03;4.00;;;1.70;;
3022;SDS011;1521;53.584;9.938;2023-03-14T15:08:29;6.27;;;2.20;;
3022;SDS011;1521;53.584;9.938;2023-03-14T15:10:55;7.53;;;1.67;;
3022;SDS011;1521;53.584;9.938;2023-03-14T15:13:21;9.83;;;1.53;;
3022;SDS011;1521;53.584;9.938;2023-03-14T15:15:48;10.30;;;2.10;;
3022;SDS011;1521;53.584;9.938;2023-03-14T15:18:21;6.57;;;2.07;;
3022;SDS011;1521;53.584;9.938;2023-03-14T15:20:50;7.57;;;1.87;;
3022;SDS011;1521;53.584;9.938;2023-03-14T15:23:17;19.07;;;2.53;;
3022;SDS011;1521;53.584;9.938;2023-03-14T15:25:45;12.70;;;2.60;;
3022;SDS011;1521;53.584;9.938;2023-03-14T15:28:19;13.27;;;1.90;;
3022;SDS011;1521;53.584;9.938;2023-03-14T15:30:50;6.33;;;2.00;;
3022;SDS011;1521;53.584;9.938;2023-03-14T15:33:18;11.67;;;2.10;;
3022;SDS011;1521;53.584;9.938;2023-03-14T15:35:44;17.90;;;2.63;;
3022;SDS011;1521;53.584;9.938;2023-03-14T15:38:11;16.33;;;2.47;;
3022;SDS011;1521;53.584;9.938;2023-03-14T15:40:38;9.17;;;2.20;;
3022;SDS011;1521;53.584;9.938;2023-03-14T15:43:04;9.00;;;1.70;;
3022;SDS011;1521;53.584;9.938;2023-03-14T15:45:30;7.43;;;1.80;;
3022;SDS011;1521;53.584;9.938;2023-03-14T15:47:55;12.47;;;1.50;;
3022;SDS011;1521;53.584;9.938;2023-03-14T15:50:21;6.50;;;1.40;;
3022;SDS011;1521;53.584;9.938;2023-03-14T15:52:47;18.23;;;2.10;;
3022;SDS011;1521;53.584;9.938;2023-03-14T15:55:13;10.37;;;2.00;;
3022;SDS011;1521;53.584;9.938;2023-03-14T15:57:39;12.83;;;2.13;;
3022;SDS011;1521;53.584;9.938;2023-03-14T16:00:06;7.40;;;1.80;;
3022;SDS011;1521;53.584;9.938;2023-03-14T16:02:36;4.63;;;1.73;;
3022;SDS011;1521;53.584;9.938;2023-03-14T16:05:05;13.17;;;2.10;;
3022;SDS011;1521;53.584;9.938;2023-03-14T16:07:31;21.23;;;2.20;;
3022;SDS011;1521;53.584;9.938;2023-03-14T16:09:58;16.20;;;2.80;;
3022;SDS011;1521;53.584;9.938;2023-03-14T16:12:23;12.47;;;1.70;;
3022;SDS011;1521;53.584;9.938;2023-03-14T16:14:49;10.37;;;1.87;;
3022;SDS011;1521;53.584;9.938;2023-03-14T16:17:15;9.87;;;1.83;;
3022;SDS011;1521;53.584;9.938;2023-03-14T16:19:40;11.73;;;1.77;;
3022;SDS011;1521;53.584;9.938;2023-03-14T16:22:06;6.13;;;1.70;;
3022;SDS011;1521;53.584;9.938;2023-03-14T16:24:32;18.60;;;2.70;;
3022;SDS011;1521;53.584;9.938;2023-03-14T16:26:57;10.40;;;2.20;;
3022;SDS011;1521;53.584;9.938;2023-03-14T16:29:23;8.47;;;1.70;;
3022;SDS011;1521;53.584;9.938;2023-03-14T16:31:48;7.70;;;1.97;;
3022;SDS011;1521;53.584;9.938;2023-03-14T16:34:14;8.10;;;1.50;;
3022;SDS011;1521;53.584;9.938;2023-03-14T16:36:40;7.80;;;1.70;;
3022;SDS011;1521;53.584;9.938;2023-03-14T16:39:05;9.43;;;1.77;;